Time;durP1;ratioP1;P1;durP2;ratioP2;P2;SDS_P1;SDS_P2;PMS_P1;PMS_P2;Temp;Humidity;BMP_temperature;BMP_pressure;BME280_temperature;BME280_humidity;BME280_pressure;Samples;Min_cycle;Max_cycle;Signal;HPM_P1;HPM_P2
2022/11/03 00:01:20;;;;;;;2.97;1.90;;;13.30;98.00;;;;;;5040188;28;20017;-71
2022/11/03 00:03:46;;;;;;;6.82;4.03;;;13.30;98.00;;;;;;5040232;28;20029;-71
2022/11/03 00:06:29;;;;;;;3.38;2.33;;;13.20;98.00;;;;;;5039974;28;20036;-71
2022/11/03 00:09:09;;;;;;;3.00;2.10;;;13.30;98.00;;;;;;5040152;28;20025;-71
2022/11/03 00:11:46;;;;;;;3.10;2.10;;;13.30;98.00;;;;;;5040032;28;20410;-71
2022/11/03 00:17:45;;;;;;;4.05;3.28;;;13.40;98.00;;;;;;5040184;28;20345;-71
2022/11/03 00:20:20;;;;;;;5.32;3.60;;;13.40;98.00;;;;;;5055025;28;20041;-71
2022/11/03 00:22:55;;;;;;;3.13;2.28;;;13.40;98.00;;;;;;5058812;28;20064;-71
2022/11/03 00:25:20;;;;;;;5.05;3.92;;;13.30;98.00;;;;;;5079467;28;20021;-71
2022/11/03 00:28:01;;;;;;;3.00;2.25;;;13.30;98.00;;;;;;5079749;28;20021;-71
2022/11/03 00:30:38;;;;;;;3.50;3.17;;;13.30;98.00;;;;;;5079577;28;20021;-71
2022/11/03 00:33:12;;;;;;;2.25;1.25;;;13.40;98.00;;;;;;5079657;28;20029;-71
2022/11/03 00:35:38;;;;;;;1.75;1.63;;;13.50;98.00;;;;;;5079609;28;20016;-71
2022/11/03 00:38:22;;;;;;;2.35;1.45;;;13.50;98.00;;;;;;5079713;28;20021;-71
2022/11/03 00:41:04;;;;;;;5.85;2.75;;;13.60;98.00;;;;;;5079339;28;20354;-71
2022/11/03 00:43:32;;;;;;;2.67;1.67;;;13.70;98.00;;;;;;5079594;28;20346;-71
2022/11/03 00:46:08;;;;;;;2.97;2.63;;;13.80;98.00;;;;;;5079397;28;20035;-71
2022/11/03 00:48:44;;;;;;;3.55;2.05;;;13.80;98.00;;;;;;5061610;28;20067;-71
2022/11/03 00:51:29;;;;;;;1.00;0.75;;;13.80;98.00;;;;;;5061758;28;20305;-71
2022/11/03 00:57:26;;;;;;;2.33;1.73;;;13.80;98.00;;;;;;5078868;28;20278;-71
2022/11/03 01:00:01;;;;;;;2.70;2.45;;;13.70;98.00;;;;;;5079239;28;20023;-71
2022/11/03 01:02:35;;;;;;;4.53;2.15;;;13.70;98.00;;;;;;5079254;28;20107;-71
2022/11/03 01:08:34;;;;;;;1.42;1.27;;;13.70;98.00;;;;;;5079549;28;20027;-71
2022/11/03 01:11:45;;;;;;;7.55;3.60;;;13.70;98.00;;;;;;5078974;28;20028;-71
2022/11/03 01:14:14;;;;;;;2.63;2.40;;;13.60;98.00;;;;;;5078800;28;20466;-71
2022/11/03 01:16:49;;;;;;;3.38;1.83;;;13.60;98.00;;;;;;5078786;28;20056;-71
2022/11/03 01:20:14;;;;;;;3.00;2.75;;;13.50;98.00;;;;;;5072483;28;20072;-71
2022/11/03 01:23:39;;;;;;;3.33;2.53;;;13.40;98.00;;;;;;5078467;28;20321;-71
2022/11/03 01:27:04;;;;;;;3.35;2.45;;;13.30;98.00;;;;;;5078624;28;20089;-71
2022/11/03 01:30:29;;;;;;;6.38;3.88;;;13.30;98.00;;;;;;5078780;28;20024;-71
2022/11/03 01:36:29;;;;;;;3.25;2.17;;;13.20;98.00;;;;;;5078919;28;20094;-71
2022/11/03 01:39:04;;;;;;;6.53;3.10;;;13.10;98.00;;;;;;5078420;28;20029;-71
2022/11/03 01:41:40;;;;;;;4.82;2.70;;;13.00;98.00;;;;;;5078434;28;20027;-71
2022/11/03 01:47:42;;;;;;;4.82;2.65;;;13.00;98.00;;;;;;5078470;28;20424;-71
2022/11/03 01:50:18;;;;;;;2.30;1.73;;;13.10;98.00;;;;;;5078300;28;20020;-71
2022/11/03 01:53:00;;;;;;;3.58;2.75;;;13.20;98.00;;;;;;5078050;28;20021;-71
2022/11/03 01:55:30;;;;;;;2.45;2.05;;;13.30;98.00;;;;;;5078111;28;20020;-71
2022/11/03 01:58:14;;;;;;;5.15;3.50;;;13.40;98.00;;;;;;5078425;28;20024;-71
2022/11/03 02:01:07;;;;;;;3.03;2.47;;;13.50;98.00;;;;;;5078142;28;21863;-71
2022/11/03 02:04:08;;;;;;;2.13;1.73;;;13.60;98.00;;;;;;5060232;28;20060;-71
2022/11/03 02:06:42;;;;;;;2.38;2.17;;;13.60;98.00;;;;;;5056620;28;20032;-71
2022/11/03 02:09:19;;;;;;;3.30;2.75;;;13.70;98.00;;;;;;5077317;28;20410;-71
2022/11/03 02:14:44;;;;;;;2.60;2.13;;;13.70;98.00;;;;;;5077841;28;20043;-71
2022/11/03 02:17:27;;;;;;;2.15;1.70;;;13.70;98.00;;;;;;5077729;28;20024;-71
2022/11/03 02:20:25;;;;;;;6.05;3.10;;;13.80;98.00;;;;;;5070528;28;20424;-71
2022/11/03 02:26:26;;;;;;;2.53;1.73;;;13.70;98.00;;;;;;5057410;28;20444;-71
2022/11/03 02:29:01;;;;;;;2.53;2.20;;;13.60;98.00;;;;;;5057430;28;20056;-71
2022/11/03 02:31:42;;;;;;;2.80;2.38;;;13.60;98.00;;;;;;5039631;28;20028;-71
2022/11/03 02:34:45;;;;;;;2.97;2.15;;;13.50;98.00;;;;;;5057539;28;20305;-71
2022/11/03 02:37:35;;;;;;;2.83;2.42;;;13.50;98.00;;;;;;5047176;28;20033;-71
2022/11/03 02:40:14;;;;;;;2.97;2.08;;;13.60;98.00;;;;;;5057327;28;20357;-71
2022/11/03 02:42:52;;;;;;;1.65;1.52;;;13.60;98.00;;;;;;5057052;28;20025;-71
2022/11/03 02:45:20;;;;;;;1.38;1.17;;;13.70;98.00;;;;;;5056974;28;20032;-71
2022/11/03 02:47:58;;;;;;;1.63;1.20;;;13.70;98.00;;;;;;5057188;28;20087;-71
2022/11/03 02:50:38;;;;;;;1.25;0.93;;;13.60;98.00;;;;;;5056814;28;20321;-71
2022/11/03 02:53:15;;;;;;;1.85;1.02;;;13.50;98.00;;;;;;5056970;28;20013;-71
2022/11/03 02:55:51;;;;;;;0.85;0.85;;;13.50;98.00;;;;;;5056902;28;20025;-71
2022/11/03 02:58:40;;;;;;;4.25;2.33;;;13.60;98.00;;;;;;5056763;28;20041;-71
2022/11/03 03:01:46;;;;;;;1.60;1.30;;;13.60;98.00;;;;;;5039017;28;20032;-71
2022/11/03 03:07:47;;;;;;;2.00;1.80;;;13.70;98.00;;;;;;5056677;28;20163;-71
2022/11/03 03:10:56;;;;;;;1.13;0.90;;;13.70;98.00;;;;;;5039227;28;20313;-71
2022/11/03 03:13:32;;;;;;;1.45;1.35;;;13.60;98.00;;;;;;5014942;28;20041;-71
2022/11/03 03:16:25;;;;;;;2.83;1.55;;;13.50;98.00;;;;;;5014959;28;20071;-71
2022/11/03 03:19:27;;;;;;;1.70;1.60;;;13.50;98.00;;;;;;5015174;28;20145;-71
2022/11/03 03:21:58;;;;;;;1.92;1.20;;;13.50;98.00;;;;;;5014816;28;20456;-71
2022/11/03 03:24:54;;;;;;;3.22;2.65;;;13.40;98.00;;;;;;5015082;28;20109;-71
2022/11/03 03:27:35;;;;;;;2.47;1.88;;;13.40;98.00;;;;;;5014918;28;20033;-71
2022/11/03 03:30:11;;;;;;;2.47;2.28;;;13.50;98.00;;;;;;5014991;28;20422;-71
2022/11/03 03:35:51;;;;;;;3.40;3.03;;;13.50;98.00;;;;;;5015006;28;20397;-71
2022/11/03 03:38:48;;;;;;;2.83;1.60;;;13.60;98.00;;;;;;5014960;28;20036;-71
2022/11/03 03:41:25;;;;;;;6.20;2.42;;;13.70;98.00;;;;;;5014192;28;20058;-71
2022/11/03 03:47:31;;;;;;;2.75;2.17;;;13.70;98.00;;;;;;5014685;28;20049;-71
2022/11/03 03:50:06;;;;;;;2.92;2.17;;;13.70;98.00;;;;;;5055423;28;20111;-71
2022/11/03 03:55:54;;;;;;;7.63;4.68;;;13.60;98.00;;;;;;5056517;28;20023;-71
2022/11/03 03:58:32;;;;;;;5.75;2.40;;;13.60;98.00;;;;;;5056102;28;20389;-71
2022/11/03 04:01:11;;;;;;;2.33;2.13;;;13.60;98.00;;;;;;5056029;28;20017;-71
2022/11/03 04:03:46;;;;;;;4.43;2.40;;;13.50;98.00;;;;;;5056205;28;20050;-71
2022/11/03 04:06:20;;;;;;;10.82;2.42;;;13.50;98.00;;;;;;5056174;28;20035;-71
2022/11/03 04:08:55;;;;;;;3.65;2.58;;;13.50;98.00;;;;;;5056117;28;20312;-71
2022/11/03 04:26:39;;;;;;;3.50;2.22;;;13.40;98.00;;;;;;5055969;28;20036;-71
2022/11/03 04:29:14;;;;;;;3.05;1.90;;;13.40;98.00;;;;;;5055813;28;20029;-71
2022/11/03 04:31:48;;;;;;;7.05;2.80;;;13.40;98.00;;;;;;5055658;28;20279;-71
2022/11/03 04:37:50;;;;;;;2.90;2.25;;;13.40;98.00;;;;;;5059818;28;20028;-71
2022/11/03 04:40:24;;;;;;;5.50;2.67;;;13.40;98.00;;;;;;5059571;28;20024;-71
2022/11/03 04:42:59;;;;;;;2.08;1.10;;;13.40;98.00;;;;;;5059423;28;20024;-71
2022/11/03 04:45:37;;;;;;;3.75;3.38;;;13.40;98.00;;;;;;5041800;28;20047;-71
2022/11/03 04:48:12;;;;;;;5.60;2.20;;;13.30;98.00;;;;;;5059325;28;20104;-71
2022/11/03 04:50:49;;;;;;;1.75;1.33;;;13.30;98.00;;;;;;5059758;28;20017;-71
2022/11/03 04:53:35;;;;;;;7.47;4.03;;;13.30;98.00;;;;;;5059249;28;20017;-71
2022/11/03 04:56:18;;;;;;;2.00;1.90;;;13.30;98.00;;;;;;5059150;28;20060;-71
2022/11/03 04:58:53;;;;;;;1.90;1.77;;;13.30;98.00;;;;;;5059272;28;20067;-71
2022/11/03 05:01:28;;;;;;;3.45;2.13;;;13.30;98.00;;;;;;5059020;28;20040;-71
2022/11/03 05:07:34;;;;;;;5.20;2.58;;;13.40;98.00;;;;;;5058919;28;20424;-71
2022/11/03 05:10:24;;;;;;;1.45;1.35;;;13.50;98.00;;;;;;5058960;28;20079;-71
2022/11/03 05:16:12;;;;;;;2.38;1.88;;;13.70;98.00;;;;;;5059141;28;20296;-71
2022/11/03 05:18:49;;;;;;;2.83;1.52;;;13.80;98.00;;;;;;5041300;28;20021;-71
2022/11/03 05:22:16;;;;;;;2.20;1.65;;;13.90;98.00;;;;;;5058095;28;20044;-71
2022/11/03 05:24:42;;;;;;;1.50;1.15;;;14.00;98.00;;;;;;5041047;28;20025;-71
2022/11/03 05:27:20;;;;;;;2.30;2.10;;;14.00;98.00;;;;;;5058666;28;20090;-71
2022/11/03 05:29:58;;;;;;;1.83;1.70;;;14.00;98.00;;;;;;5058748;28;20025;-71
2022/11/03 05:32:33;;;;;;;3.88;1.92;;;14.10;98.00;;;;;;5058565;28;20090;-71
2022/11/03 05:34:59;;;;;;;2.40;1.85;;;14.10;98.00;;;;;;5058544;28;20052;-71
2022/11/03 05:37:36;;;;;;;2.90;2.13;;;14.10;98.00;;;;;;5058469;28;20025;-71
2022/11/03 05:40:16;;;;;;;6.72;3.22;;;14.10;98.00;;;;;;5058449;28;20021;-71
2022/11/03 05:46:04;;;;;;;2.20;1.58;;;14.20;98.00;;;;;;5057704;28;20036;-70
2022/11/03 05:48:48;;;;;;;3.03;2.20;;;14.30;98.00;;;;;;5058348;28;20352;-71
2022/11/03 05:51:42;;;;;;;3.22;2.55;;;14.20;98.00;;;;;;5058161;28;20095;-71
2022/11/03 05:58:25;;;;;;;2.90;1.88;;;14.00;98.00;;;;;;5058225;28;20036;-71
2022/11/03 06:01:11;;;;;;;7.90;2.53;;;13.90;98.00;;;;;;5058036;28;20479;-71
2022/11/03 06:03:37;;;;;;;2.10;1.90;;;13.70;98.00;;;;;;5057990;28;20466;-71
2022/11/03 06:06:26;;;;;;;2.10;1.65;;;13.60;98.00;;;;;;5057852;28;20024;-71
2022/11/03 06:09:31;;;;;;;3.08;2.33;;;13.60;98.00;;;;;;5057790;28;20017;-71
2022/11/03 06:12:21;;;;;;;3.15;2.75;;;13.50;98.00;;;;;;5052065;28;20052;-71
2022/11/03 06:14:56;;;;;;;3.28;2.63;;;13.50;98.00;;;;;;5057800;28;20067;-71
2022/11/03 06:17:36;;;;;;;1.48;0.98;;;13.50;98.00;;;;;;5057771;28;20286;-71
2022/11/03 06:28:16;;;;;;;4.35;2.25;;;13.50;98.00;;;;;;5037612;28;20048;-71
2022/11/03 06:31:26;;;;;;;1.75;1.60;;;13.60;98.00;;;;;;5037471;28;20025;-71
2022/11/03 06:37:33;;;;;;;2.35;1.90;;;13.80;98.00;;;;;;5037611;28;20028;-71
2022/11/03 06:40:33;;;;;;;4.13;1.73;;;13.90;98.00;;;;;;5019770;28;20406;-71
2022/11/03 06:46:25;;;;;;;2.03;1.85;;;13.90;98.00;;;;;;4976718;28;20045;-71
2022/11/03 06:49:30;;;;;;;5.40;1.40;;;13.90;98.00;;;;;;4976483;28;20459;-71
2022/11/03 06:52:36;;;;;;;3.67;1.92;;;13.90;98.00;;;;;;4959997;28;20037;-71
2022/11/03 06:55:10;;;;;;;2.15;1.27;;;13.90;98.00;;;;;;4970577;28;20076;-71
2022/11/03 06:58:29;;;;;;;5.57;2.00;;;13.90;98.00;;;;;;4976591;28;20105;-71
2022/11/03 07:01:33;;;;;;;2.00;1.80;;;13.90;98.00;;;;;;5024051;28;20417;-71
2022/11/03 07:04:03;;;;;;;3.65;2.60;;;14.10;98.00;;;;;;5027571;28;20048;-71
2022/11/03 07:06:38;;;;;;;5.20;2.80;;;14.20;98.00;;;;;;5036721;28;20149;-70
2022/11/03 07:09:19;;;;;;;2.15;1.95;;;14.40;98.00;;;;;;5036959;28;20022;-70
2022/11/03 07:12:00;;;;;;;5.65;2.83;;;14.60;98.00;;;;;;5037025;28;20025;-70
2022/11/03 07:14:30;;;;;;;2.53;2.22;;;14.80;98.00;;;;;;5036612;28;20410;-70
2022/11/03 07:17:25;;;;;;;2.33;1.10;;;14.90;98.00;;;;;;5018990;28;20029;-70
2022/11/03 07:20:01;;;;;;;2.85;1.85;;;15.10;98.00;;;;;;5036667;28;20032;-70
2022/11/03 07:25:53;;;;;;;2.97;2.38;;;15.20;98.00;;;;;;5056795;28;20175;-70
2022/11/03 07:28:37;;;;;;;2.60;2.10;;;15.20;98.00;;;;;;5056501;28;20014;-70
2022/11/03 07:31:24;;;;;;;3.33;2.72;;;15.20;98.00;;;;;;5056450;28;20105;-70
2022/11/03 07:33:55;;;;;;;2.17;1.48;;;15.20;98.00;;;;;;5056322;28;20047;-71
2022/11/03 07:36:31;;;;;;;4.80;3.35;;;15.30;98.00;;;;;;5056406;28;20021;-70
2022/11/03 07:39:23;;;;;;;2.63;1.92;;;15.30;98.00;;;;;;5038800;28;20341;-71
2022/11/03 07:41:58;;;;;;;2.22;1.67;;;15.40;98.00;;;;;;5056213;28;20455;-70
2022/11/03 07:44:24;;;;;;;;;;;15.40;98.00;;;;;;5056805;28;20021;-70
2022/11/03 07:47:14;;;;;;;4.95;3.45;;;15.50;98.00;;;;;;5056331;28;20215;-70
2022/11/03 07:49:49;;;;;;;2.10;1.90;;;15.60;98.00;;;;;;5056233;28;20029;-70
2022/11/03 07:52:25;;;;;;;4.43;2.63;;;15.60;98.00;;;;;;5056257;28;20056;-70
2022/11/03 07:54:56;;;;;;;2.75;2.28;;;15.50;98.00;;;;;;5056269;28;20021;-70
2022/11/03 07:57:32;;;;;;;2.65;2.38;;;15.60;98.00;;;;;;5056272;28;20025;-70
2022/11/03 08:00:27;;;;;;;2.22;1.83;;;15.50;98.00;;;;;;5056247;28;20395;-70
2022/11/03 08:06:14;;;;;;;8.10;2.50;;;15.30;98.00;;;;;;5056152;28;20036;-70
2022/11/03 08:08:49;;;;;;;4.40;3.10;;;15.30;98.00;;;;;;5058677;28;20096;-70
2022/11/03 08:11:24;;;;;;;2.33;2.03;;;15.30;98.00;;;;;;5060148;28;20017;-69
2022/11/03 08:13:51;;;;;;;2.53;1.80;;;15.40;98.00;;;;;;5060088;28;20029;-70
2022/11/03 08:16:26;;;;;;;2.42;2.05;;;15.50;98.00;;;;;;5059940;28;20021;-70
2022/11/03 08:19:01;;;;;;;3.83;2.20;;;15.50;98.00;;;;;;5060042;28;20032;-70
2022/11/03 08:21:36;;;;;;;1.95;1.30;;;15.60;98.00;;;;;;5059432;28;20357;-70
2022/11/03 08:24:03;;;;;;;2.22;1.92;;;15.70;98.00;;;;;;5059646;28;20032;-70
2022/11/03 08:26:41;;;;;;;4.60;2.70;;;15.80;98.00;;;;;;5041904;28;20091;-71
2022/11/03 08:29:16;;;;;;;3.97;2.83;;;15.80;98.00;;;;;;5059807;28;20096;-70
2022/11/03 08:31:51;;;;;;;5.05;2.72;;;15.90;98.00;;;;;;5059602;28;20029;-71
2022/11/03 08:37:54;;;;;;;5.22;2.25;;;15.90;98.00;;;;;;5060017;28;20028;-70
2022/11/03 08:40:29;;;;;;;1.52;1.35;;;15.80;98.00;;;;;;5059621;28;20025;-71
2022/11/03 08:46:16;;;;;;;1.27;1.13;;;16.00;98.00;;;;;;5059483;28;20078;-70
2022/11/03 08:52:04;;;;;;;6.85;1.95;;;16.60;98.00;;;;;;5059251;28;20047;-70
2022/11/03 08:54:30;;;;;;;2.05;1.55;;;16.70;97.30;;;;;;5041584;28;20021;-70
2022/11/03 08:57:05;;;;;;;3.65;2.72;;;16.70;97.80;;;;;;5059194;28;20028;-70
2022/11/03 08:59:39;;;;;;;1.55;1.45;;;16.80;98.00;;;;;;5059245;28;20032;-70
2022/11/03 09:05:29;;;;;;;3.08;2.30;;;16.80;98.00;;;;;;5059298;28;20062;-69
2022/11/03 09:08:13;;;;;;;1.08;0.95;;;16.70;98.00;;;;;;5041592;28;20052;-69
2022/11/03 09:10:47;;;;;;;2.22;1.65;;;16.70;98.00;;;;;;5059028;28;20021;-70
2022/11/03 09:13:22;;;;;;;1.83;1.60;;;16.70;98.00;;;;;;5058874;28;20082;-70
2022/11/03 09:15:48;;;;;;;2.20;1.48;;;16.60;98.00;;;;;;5058933;28;20077;-71
2022/11/03 09:18:32;;;;;;;2.05;1.35;;;16.60;98.00;;;;;;5058851;28;20104;-71
2022/11/03 09:22:00;;;;;;;3.67;2.53;;;16.70;98.00;;;;;;5058287;28;20033;-71
2022/11/03 09:24:26;;;;;;;5.43;2.85;;;17.00;97.40;;;;;;5058706;28;20100;-69
2022/11/03 09:27:07;;;;;;;2.70;2.13;;;17.50;94.70;;;;;;5058717;28;20085;-70
2022/11/03 09:29:42;;;;;;;2.17;1.67;;;17.60;94.90;;;;;;5058694;28;20027;-70
2022/11/03 09:32:16;;;;;;;2.67;2.30;;;17.70;93.10;;;;;;5058386;28;20025;-70
2022/11/03 09:35:24;;;;;;;3.30;2.20;;;18.00;92.90;;;;;;5058885;28;20021;-70
2022/11/03 09:37:59;;;;;;;3.45;1.75;;;18.40;90.70;;;;;;5058627;28;20021;-70
2022/11/03 09:40:36;;;;;;;1.35;1.10;;;18.60;90.70;;;;;;5058324;28;20021;-71
2022/11/03 09:46:25;;;;;;;3.53;1.17;;;18.60;91.10;;;;;;5058502;28;20056;-71
2022/11/03 09:49:07;;;;;;;0.63;0.60;;;18.70;90.60;;;;;;5058266;28;20140;-71
2022/11/03 09:51:42;;;;;;;1.35;1.00;;;18.60;90.00;;;;;;5058164;28;20098;-70
2022/11/03 09:57:42;;;;;;;11.38;1.63;;;18.40;92.20;;;;;;5058454;28;20082;-71
2022/11/03 10:00:27;;;;;;;1.15;0.98;;;18.30;92.00;;;;;;5058066;28;20017;-71
2022/11/03 10:03:03;;;;;;;3.20;1.73;;;18.20;91.60;;;;;;5057870;28;20393;-71
2022/11/03 10:05:29;;;;;;;1.77;1.13;;;18.10;92.40;;;;;;5057857;28;20301;-71
2022/11/03 10:08:33;;;;;;;1.48;1.23;;;18.00;92.90;;;;;;5040395;28;20051;-71
2022/11/03 10:11:08;;;;;;;1.63;1.17;;;18.00;93.10;;;;;;5057801;28;20017;-71
2022/11/03 10:16:59;;;;;;;1.52;1.20;;;17.80;93.20;;;;;;5058114;28;20027;-71
2022/11/03 10:19:39;;;;;;;8.88;3.10;;;17.60;94.50;;;;;;5057668;28;20017;-71
2022/11/03 10:25:47;;;;;;;2.28;1.85;;;17.70;96.00;;;;;;5057675;28;20051;-71
2022/11/03 10:28:28;;;;;;;3.08;2.58;;;17.70;94.90;;;;;;5057504;28;20025;-72
2022/11/03 10:34:42;;;;;;;2.63;2.17;;;17.60;94.70;;;;;;5057508;28;20023;-71
2022/11/03 10:37:25;;;;;;;1.42;1.25;;;17.60;96.00;;;;;;5057419;28;20021;-71
2022/11/03 10:40:00;;;;;;;2.97;2.17;;;17.60;95.70;;;;;;5057345;28;20024;-71
2022/11/03 10:42:34;;;;;;;3.03;1.85;;;17.70;96.60;;;;;;5057097;28;20032;-71
2022/11/03 10:45:19;;;;;;;1.75;1.15;;;17.70;95.50;;;;;;5057243;28;20036;-70
2022/11/03 10:48:07;;;;;;;2.15;1.58;;;17.60;97.10;;;;;;5057679;28;20328;-70
2022/11/03 10:50:42;;;;;;;8.55;2.83;;;17.50;96.10;;;;;;5057121;28;20047;-70
2022/11/03 10:56:31;;;;;;;2.25;1.80;;;17.80;96.20;;;;;;5057210;28;20087;-70
2022/11/03 10:59:23;;;;;;;4.13;2.28;;;18.60;95.30;;;;;;5056947;28;20028;-70
2022/11/03 11:02:00;;;;;;;3.22;2.47;;;19.00;92.40;;;;;;5057341;28;20031;-70
2022/11/03 11:04:26;;;;;;;2.20;1.70;;;18.90;94.30;;;;;;5056892;28;20021;-69
2022/11/03 11:07:01;;;;;;;2.33;1.50;;;18.80;93.30;;;;;;5056771;28;20356;-71
2022/11/03 11:09:35;;;;;;;2.60;1.67;;;18.60;94.10;;;;;;5056743;28;20088;-69
2022/11/03 11:16:03;;;;;;;5.18;3.03;;;18.20;95.20;;;;;;5057096;28;20040;-70
2022/11/03 11:19:07;;;;;;;1.92;1.67;;;17.80;97.00;;;;;;5056607;28;20108;-70
2022/11/03 11:25:08;;;;;;;2.42;1.92;;;17.40;97.60;;;;;;5057048;28;20043;-71
2022/11/03 11:27:49;;;;;;;3.17;2.70;;;17.30;97.70;;;;;;5038754;28;20472;-69
2022/11/03 11:30:30;;;;;;;3.83;2.28;;;17.50;96.90;;;;;;5056561;28;20024;-71
2022/11/03 11:36:23;;;;;;;2.70;2.45;;;17.60;98.00;;;;;;5056564;28;20119;-71
2022/11/03 11:38:59;;;;;;;4.55;2.85;;;17.60;96.40;;;;;;5056304;28;20348;-71
2022/11/03 11:42:03;;;;;;;3.42;2.88;;;17.40;98.00;;;;;;5056117;28;20101;-71
2022/11/03 11:44:44;;;;;;;1.40;1.27;;;17.30;97.30;;;;;;5056298;28;20481;-71
2022/11/03 11:47:53;;;;;;;4.35;3.58;;;17.30;98.00;;;;;;5056121;28;20071;-71
2022/11/03 11:50:30;;;;;;;2.45;2.10;;;17.10;98.00;;;;;;5056235;28;20036;-71
2022/11/03 11:56:18;;;;;;;2.60;2.22;;;16.70;98.00;;;;;;5056596;28;20027;-71
2022/11/03 11:59:04;;;;;;;3.45;3.00;;;16.60;98.00;;;;;;5056195;28;20021;-71
2022/11/03 12:01:42;;;;;;;2.97;1.88;;;16.60;98.00;;;;;;5056443;28;20021;-71
2022/11/03 12:07:42;;;;;;;1.92;1.38;;;16.80;98.00;;;;;;5056156;28;20032;-71
2022/11/03 12:10:21;;;;;;;3.25;2.33;;;16.90;98.00;;;;;;5056058;28;20420;-71
2022/11/03 12:16:24;;;;;;;2.95;2.63;;;17.10;98.00;;;;;;5056205;28;20032;-71
2022/11/03 12:26:26;;;;;;;2.88;2.50;;;17.20;98.00;;;;;;5056303;28;20040;-71
2022/11/03 12:29:00;;;;;;;1.77;1.65;;;17.10;98.00;;;;;;5055998;28;20024;-71
2022/11/03 12:31:35;;;;;;;3.88;2.92;;;17.00;98.00;;;;;;5055857;28;20109;-71
2022/11/03 12:37:32;;;;;;;3.15;2.85;;;16.80;98.00;;;;;;5056144;28;20139;-71
2022/11/03 12:40:08;;;;;;;2.38;2.17;;;16.80;98.00;;;;;;5055942;28;20404;-71
2022/11/03 12:45:55;;;;;;;3.22;2.22;;;16.60;98.00;;;;;;5055705;28;20317;-71
2022/11/03 12:48:36;;;;;;;1.98;1.33;;;16.70;98.00;;;;;;5055769;28;20021;-71
2022/11/03 12:51:12;;;;;;;2.10;1.23;;;16.70;98.00;;;;;;5055617;28;20021;-71
2022/11/03 12:53:39;;;;;;;4.43;2.42;;;16.80;98.00;;;;;;5038820;28;20017;-71
2022/11/03 12:56:52;;;;;;;2.20;2.00;;;16.80;98.00;;;;;;5059325;28;20021;-71
2022/11/03 12:59:27;;;;;;;3.10;2.33;;;16.70;98.00;;;;;;5059135;28;20029;-71
2022/11/03 13:02:03;;;;;;;2.58;1.65;;;16.70;98.00;;;;;;5059248;28;20099;-71
2022/11/03 13:04:29;;;;;;;1.70;1.60;;;16.70;98.00;;;;;;5059225;28;20036;-71
2022/11/03 13:07:07;;;;;;;3.03;2.28;;;16.80;98.00;;;;;;5058929;28;20021;-71
2022/11/03 13:09:42;;;;;;;3.47;1.77;;;16.80;98.00;;;;;;5058999;28;20021;-71
2022/11/03 13:15:29;;;;;;;5.55;3.15;;;16.90;98.00;;;;;;5059353;28;20028;-71
2022/11/03 13:18:04;;;;;;;2.20;2.00;;;17.00;98.00;;;;;;5041646;28;20021;-71
2022/11/03 13:20:39;;;;;;;4.32;3.05;;;17.00;98.00;;;;;;5058845;28;20016;-71
2022/11/03 13:30:16;;;;;;;2.63;1.90;;;16.70;98.00;;;;;;5058958;28;20035;-71
2022/11/03 13:36:03;;;;;;;4.63;2.42;;;16.50;98.00;;;;;;5058467;28;20156;-71
2022/11/03 13:38:38;;;;;;;3.17;2.17;;;16.40;98.00;;;;;;5058491;28;20071;-71
2022/11/03 13:41:13;;;;;;;2.27;1.77;;;16.50;98.00;;;;;;5058473;28;20103;-71
2022/11/03 13:43:38;;;;;;;2.33;2.05;;;16.30;98.00;;;;;;5058314;28;20017;-71
2022/11/03 13:46:16;;;;;;;3.67;2.90;;;16.30;98.00;;;;;;5058357;28;20424;-71
2022/11/03 13:48:51;;;;;;;2.35;2.08;;;16.40;98.00;;;;;;5058210;28;20044;-71
2022/11/03 13:51:26;;;;;;;3.80;2.53;;;16.60;98.00;;;;;;5058378;28;20361;-71
2022/11/03 13:57:29;;;;;;;4.15;3.03;;;16.80;98.00;;;;;;5058438;28;20039;-71
2022/11/03 14:00:05;;;;;;;2.45;2.10;;;16.80;98.00;;;;;;5058168;28;20028;-71
2022/11/03 14:05:53;;;;;;;2.60;1.65;;;16.60;98.00;;;;;;5057252;28;20035;-71
2022/11/03 14:08:28;;;;;;;2.28;1.63;;;16.50;98.00;;;;;;5057969;28;20389;-71
2022/11/03 14:12:29;;;;;;;3.67;1.87;;;16.60;98.00;;;;;;5058027;28;20452;-71
2022/11/03 14:17:18;;;;;;;1.75;1.63;;;16.50;98.00;;;;;;5036275;28;20340;-71
2022/11/03 14:19:53;;;;;;;2.17;1.65;;;16.40;98.00;;;;;;5035965;28;20033;-71
2022/11/03 14:25:49;;;;;;;2.72;1.58;;;16.30;98.00;;;;;;5035885;28;20032;-71
2022/11/03 14:28:24;;;;;;;1.55;1.20;;;16.20;98.00;;;;;;5018934;28;20025;-71
2022/11/03 14:31:00;;;;;;;3.47;1.88;;;16.20;98.00;;;;;;5035809;28;20021;-71
2022/11/03 14:36:47;;;;;;;1.85;1.50;;;16.00;98.00;;;;;;5035965;28;20028;-71
2022/11/03 14:39:22;;;;;;;1.90;1.73;;;16.00;98.00;;;;;;5035577;28;20410;-71
2022/11/03 14:42:03;;;;;;;3.50;1.80;;;15.90;98.00;;;;;;5035676;28;20033;-71
2022/11/03 14:44:42;;;;;;;4.45;2.75;;;15.80;98.00;;;;;;5035648;28;20025;-71
2022/11/03 14:47:22;;;;;;;2.42;1.73;;;15.80;98.00;;;;;;5035295;28;20053;-71
2022/11/03 14:49:56;;;;;;;1.67;1.10;;;15.70;98.00;;;;;;5035484;28;20062;-71
2022/11/03 14:55:45;;;;;;;4.57;2.90;;;15.60;98.00;;;;;;5057456;28;20064;-71
2022/11/03 14:58:19;;;;;;;7.78;3.60;;;15.60;98.00;;;;;;5056947;28;20393;-71
2022/11/03 15:00:54;;;;;;;3.92;2.03;;;15.60;98.00;;;;;;5056949;28;20475;-71
2022/11/03 15:03:30;;;;;;;1.40;1.30;;;15.50;98.00;;;;;;5056891;28;20029;-71
2022/11/03 15:06:05;;;;;;;2.10;1.45;;;15.50;98.00;;;;;;5056968;28;20035;-71
2022/11/03 15:08:40;;;;;;;3.63;1.92;;;15.40;98.00;;;;;;5056934;28;20017;-71
2022/11/03 15:11:14;;;;;;;3.10;2.20;;;15.30;98.00;;;;;;5056972;28;20021;-71
2022/11/03 15:17:11;;;;;;;2.75;1.85;;;15.20;98.00;;;;;;5056827;28;20132;-71
2022/11/03 15:19:47;;;;;;;0.93;0.77;;;15.10;98.00;;;;;;5039070;28;20074;-71
2022/11/03 15:25:44;;;;;;;2.50;2.30;;;15.00;98.00;;;;;;5056700;28;20112;-71
2022/11/03 15:28:20;;;;;;;2.85;2.15;;;15.00;98.00;;;;;;5056600;28;20032;-71
2022/11/03 15:30:54;;;;;;;3.65;2.10;;;15.00;98.00;;;;;;5056485;28;20025;-71
2022/11/03 15:36:42;;;;;;;3.55;3.08;;;15.00;98.00;;;;;;5056748;28;20028;-71
2022/11/03 15:39:28;;;;;;;2.55;2.20;;;15.10;98.00;;;;;;5056356;28;20021;-71
2022/11/03 15:42:04;;;;;;;2.67;1.83;;;15.00;98.00;;;;;;5056457;28;20051;-71
2022/11/03 15:44:29;;;;;;;4.15;2.53;;;14.90;98.00;;;;;;5056422;28;20044;-71
2022/11/03 15:47:11;;;;;;;2.38;2.00;;;14.80;98.00;;;;;;5056379;28;20049;-71
2022/11/03 15:49:45;;;;;;;1.17;1.08;;;14.80;98.00;;;;;;5038635;28;20021;-71
2022/11/03 15:55:33;;;;;;;1.75;1.65;;;14.60;98.00;;;;;;5056374;28;20309;-71
2022/11/03 15:58:07;;;;;;;1.98;1.77;;;14.60;98.00;;;;;;5056205;28;20021;-71
2022/11/03 16:00:42;;;;;;;6.03;3.38;;;14.70;98.00;;;;;;5056184;28;20045;-71
2022/11/03 16:06:30;;;;;;;8.55;1.80;;;14.70;98.00;;;;;;5056204;28;20032;-71
2022/11/03 16:09:08;;;;;;;1.85;1.45;;;14.70;98.00;;;;;;5056157;28;20022;-71
2022/11/03 16:11:43;;;;;;;1.88;1.67;;;14.70;98.00;;;;;;5056437;28;20405;-71
2022/11/03 16:17:42;;;;;;;1.70;1.38;;;14.70;98.00;;;;;;5056078;28;20031;-71
2022/11/03 16:20:19;;;;;;;3.88;2.80;;;14.70;98.00;;;;;;5056378;28;20048;-71
2022/11/03 16:26:07;;;;;;;2.08;1.88;;;14.70;98.00;;;;;;5054796;28;20068;-71
2022/11/03 16:28:42;;;;;;;2.83;2.50;;;14.70;98.00;;;;;;5056775;28;20108;-71
2022/11/03 16:31:17;;;;;;;5.53;3.63;;;14.70;98.00;;;;;;5059608;28;20313;-71
2022/11/03 16:37:14;;;;;;;3.28;2.60;;;14.70;98.00;;;;;;5060414;28;20079;-71
2022/11/03 16:39:49;;;;;;;2.95;2.22;;;14.70;98.00;;;;;;5059692;28;20056;-71
2022/11/03 16:42:23;;;;;;;4.38;3.05;;;14.80;98.00;;;;;;5059340;28;20048;-71
2022/11/03 16:44:49;;;;;;;6.88;4.00;;;14.80;98.00;;;;;;5059569;28;20059;-71
2022/11/03 16:47:25;;;;;;;3.92;3.53;;;14.80;98.00;;;;;;5059738;28;20064;-71
2022/11/03 16:50:00;;;;;;;5.65;3.05;;;14.80;98.00;;;;;;5059395;28;20025;-71
2022/11/03 16:52:35;;;;;;;5.00;3.47;;;14.80;98.00;;;;;;5059227;28;20305;-71
2022/11/03 16:55:01;;;;;;;5.93;2.90;;;14.80;98.00;;;;;;5059426;28;20032;-71
2022/11/03 16:57:46;;;;;;;4.50;4.07;;;14.80;98.00;;;;;;5059280;28;20062;-71
2022/11/03 17:00:21;;;;;;;4.68;3.65;;;14.80;98.00;;;;;;5059144;28;20434;-71
2022/11/03 17:02:56;;;;;;;2.67;2.42;;;14.80;98.00;;;;;;5059307;28;20112;-71
2022/11/03 17:05:22;;;;;;;3.27;2.60;;;14.90;98.00;;;;;;5059175;28;20056;-71
2022/11/03 17:08:06;;;;;;;9.50;4.15;;;14.80;98.00;;;;;;5059043;28;20056;-71
2022/11/03 17:10:40;;;;;;;4.07;2.65;;;14.80;98.00;;;;;;5058946;28;20025;-71
2022/11/03 17:13:15;;;;;;;4.20;3.83;;;14.80;98.00;;;;;;5059078;28;20092;-71
2022/11/03 17:15:41;;;;;;;5.30;3.58;;;14.80;98.00;;;;;;5058845;28;20021;-71
2022/11/03 17:18:25;;;;;;;5.45;4.28;;;14.80;98.00;;;;;;5041314;28;20040;-71
2022/11/03 17:21:00;;;;;;;4.65;3.30;;;14.80;98.00;;;;;;5058532;28;20301;-71
2022/11/03 17:23:35;;;;;;;7.93;3.53;;;14.80;98.00;;;;;;5058741;28;20521;-71
2022/11/03 17:26:11;;;;;;;4.75;4.15;;;14.80;98.00;;;;;;5040945;28;20283;-71
2022/11/03 17:28:45;;;;;;;6.47;4.57;;;14.80;98.00;;;;;;5058741;28;20032;-71